WetterOnline ( https://www.wetteronline.ch )

Wetter aktuell Dresden

Aktuelles Wetter: Dresden/Klotzsche (232m)

6-stündlich | Neueste Meldungen
Ortszeit Temperatur Wetter
Di, 20.10. 8:00 4.9° C leicht bewölkt
Di, 20.10. 2:00 5.9° C wolkenlos
Mo, 19.10. 20:00 9.5° C bewölkt
Mo, 19.10. 14:00 9.9° C bedeckt
Mo, 19.10. 8:00 7.5° C bewölkt
Mo, 19.10. 2:00 8.1° C bedeckt
So, 18.10. 20:00 8.8° C leichter Regen
So, 18.10. 14:00 10.1° C bedeckt
Ortszeit Temperatur Wetter
Di, 20.10. 10:20 7° C leicht bewölkt
Di, 20.10. 10:00 6.8° C leicht bewölkt
Di, 20.10. 9:50 6.8° C wolkig
Di, 20.10. 9:40 6.3° C leicht bewölkt
Di, 20.10. 9:30 6.3° C wolkig
Di, 20.10. 9:20 6.3° C wolkig
Di, 20.10. 9:00 5.6° C leicht bewölkt
Di, 20.10. 8:30 5.1° C leicht bewölkt
Di, 20.10. 8:00 4.9° C leicht bewölkt
Di, 20.10. 7:30 4.5° C wolkenlos
Di, 20.10. 7:00 4.5° C leicht bewölkt
Ortszeit Relative Feuchte Sichtweite
Di, 20.10. 8:00 87% 10 km
Di, 20.10. 2:00 87% 18 km
Mo, 19.10. 20:00 73% 30 km
Mo, 19.10. 14:00 75% 20 km
Mo, 19.10. 8:00 85% 12 km
Mo, 19.10. 2:00 79% 22 km
So, 18.10. 20:00 74% 30 km
So, 18.10. 14:00 67% 40 km
Ortszeit Relative Feuchte Sichtweite
Di, 20.10. 10:20 81% >10 km
Di, 20.10. 10:00 81% 16 km
Di, 20.10. 9:50 81% -
Di, 20.10. 9:40 81% -
Di, 20.10. 9:30 83% 21 km
Di, 20.10. 9:20 83% -
Di, 20.10. 9:00 86% 12 km
Di, 20.10. 8:30 86% 19 km
Di, 20.10. 8:00 87% 10 km
Di, 20.10. 7:30 88% 15 km
Di, 20.10. 7:00 89% 10 km
Ortszeit Niederschlagsmenge Niederschlagsart
Di, 20.10. 8:00 0.0 l/m2 in 12 Std. -
Di, 20.10. 2:00 0.0 l/m2 in 6 Std. -
Mo, 19.10. 20:00 0.0 l/m2 in 12 Std. -
Mo, 19.10. 14:00 0.0 l/m2 in 6 Std. -
Mo, 19.10. 8:00 0.1 l/m2 in 12 Std. Regen
Mo, 19.10. 2:00 0.1 l/m2 in 6 Std. Regen
So, 18.10. 20:00 0.1 l/m2 in 12 Std. Regen
So, 18.10. 14:00 0.0 l/m2 in 6 Std. -
Ortszeit Niederschlagsmenge Niederschlagsart
Di, 20.10. 10:20 keine Meldung -
Di, 20.10. 10:00 0.0 l/m2 in 1 Std. -
Di, 20.10. 9:50 keine Meldung -
Di, 20.10. 9:40 keine Meldung -
Di, 20.10. 9:30 keine Meldung -
Di, 20.10. 9:20 keine Meldung -
Di, 20.10. 9:00 0.0 l/m2 in 1 Std. -
Di, 20.10. 8:30 0.0 l/m2 in 1 Std. -
Di, 20.10. 8:00 0.0 l/m2 in 1 Std. -
Di, 20.10. 7:30 0.0 l/m2 in 1 Std. -
Di, 20.10. 7:00 0.0 l/m2 in 1 Std. -
Ortszeit Stärke Spitze Richtung
km/h Bft. km/h Grad Sektor
Di, 20.10. 8:00 18 3 25 140° SO
Di, 20.10. 2:00 14 3 22 130° SO
Mo, 19.10. 20:00 11 2 18 160° S
Mo, 19.10. 14:00 15 3 30 240° SW
Mo, 19.10. 8:00 13 3 26 230° SW
Mo, 19.10. 2:00 14 3 29 250° W
So, 18.10. 20:00 13 3 48 260° W
So, 18.10. 14:00 24 4 43 270° W
Ortszeit Stärke Spitze Richtung
km/h Bft. km/h Grad Sektor
Di, 20.10. 10:20 24 4 - 160° S
Di, 20.10. 10:00 22 4 40 160° S
Di, 20.10. 9:50 22 4 - 160° S
Di, 20.10. 9:40 22 4 - 150° SO
Di, 20.10. 9:30 22 4 32 160° S
Di, 20.10. 9:20 22 4 - 160° S
Di, 20.10. 9:00 18 3 32 150° SO
Di, 20.10. 8:30 20 4 30 150° SO
Di, 20.10. 8:00 18 3 25 140° SO
Di, 20.10. 7:30 14 3 22 130° SO
Di, 20.10. 7:00 13 3 19 140° SO
Ortszeit Untergrenze Bedeckung Gattung
total tief tief mittel hoch
Di, 20.10. 8:00 6900 m 5/8 5/8 - - Ci
Di, 20.10. 2:00 8100 m 0/8 0/8 - - -
Mo, 19.10. 20:00 1800 m 7/8 7/8 Sc - -
Mo, 19.10. 14:00 540 m 8/8 8/8 Cu - -
Mo, 19.10. 8:00 480 m 7/8 7/8 Sc - -
Mo, 19.10. 2:00 690 m 8/8 7/8 Sc - -
So, 18.10. 20:00 1050 m 8/8 8/8 Sc - -
So, 18.10. 14:00 720 m 8/8 8/8 Cu - -
Ortszeit Bedeckungsgrad in Achtel und Wolkenuntergrenze
Di, 20.10. 10:20 1-2(360m)
Di, 20.10. 10:00 2(5700m) 5(6900m)
Di, 20.10. 9:50 6(5700m) 6(6900m)
Di, 20.10. 9:40 4(5700m) 4(6900m)
Di, 20.10. 9:30 5(5700m) 6(6600m)
Di, 20.10. 9:20 5(5700m) 6(6600m)
Di, 20.10. 9:00 1(3900m) 6(6000m)
Di, 20.10. 8:30 1(6000m) 3(6900m)
Di, 20.10. 8:00 5(6900m)
Di, 20.10. 7:30 keine Wolken
Di, 20.10. 7:00 3(7200m)
Ortszeit Luftdruck NN (hPa) Tendenz (hPa in 3 Std.)
Di, 20.10. 8:00 1020 - 1,5
Di, 20.10. 2:00 1022 - 1,1
Mo, 19.10. 20:00 1024 + 0,4
Mo, 19.10. 14:00 1024 - 0,1
Mo, 19.10. 8:00 1023 + 0,6
Mo, 19.10. 2:00 1022 + 0,7
So, 18.10. 20:00 1021 + 1,1
So, 18.10. 14:00 1019 - 0,2
Ortszeit Luftdruck NN (hPa) Tendenz (hPa in 3 Std.)
Di, 20.10. 10:20 1018 keine Meldung
Di, 20.10. 10:00 1019 - 1,0
Di, 20.10. 9:50 1019 keine Meldung
Di, 20.10. 9:40 1019 keine Meldung
Di, 20.10. 9:30 1020 - 1,1
Di, 20.10. 9:20 1020 keine Meldung
Di, 20.10. 9:00 1020 - 1,4
Di, 20.10. 8:30 1020 - 1,6
Di, 20.10. 8:00 1020 - 1,5
Di, 20.10. 7:30 1020 - 1,4
Di, 20.10. 7:00 1021 - 0,8
Ortszeit Schneehöhe (cm)
Di, 20.10. 8:00 0
Di, 20.10. 2:00 0
Mo, 19.10. 20:00 0
Mo, 19.10. 14:00 0
Mo, 19.10. 8:00 0
Mo, 19.10. 2:00 0
So, 18.10. 20:00 0
So, 18.10. 14:00 0
Ortszeit Schneehöhe (cm)
Di, 20.10. 10:20 -
Di, 20.10. 10:00 0
Di, 20.10. 9:50 0
Di, 20.10. 9:40 0
Di, 20.10. 9:30 0
Di, 20.10. 9:20 0
Di, 20.10. 9:00 0
Di, 20.10. 8:30 0
Di, 20.10. 8:00 0
Di, 20.10. 7:30 0
Di, 20.10. 7:00 0
Link zu dieser Seite / Seite empfehlen

Das Wetter in ...